sensor_id;sensor_type;location;lat;lon;timestamp;P1;durP1;ratioP1;P2;durP2;ratioP2
50695;SDS011;36665;51.786;21.594;2023-02-01T00:06:06;6.40;;;3.70;;
50695;SDS011;36665;51.786;21.594;2023-02-01T00:14:29;9.50;;;5.50;;
50695;SDS011;36665;51.786;21.594;2023-02-01T00:22:52;11.40;;;5.90;;
50695;SDS011;36665;51.786;21.594;2023-02-01T00:31:15;6.00;;;3.90;;
50695;SDS011;36665;51.786;21.594;2023-02-01T00:39:38;5.10;;;3.30;;
50695;SDS011;36665;51.786;21.594;2023-02-01T00:48:04;5.30;;;3.50;;
50695;SDS011;36665;51.786;21.594;2023-02-01T00:56:27;3.50;;;2.50;;
50695;SDS011;36665;51.786;21.594;2023-02-01T01:04:50;9.80;;;3.60;;
50695;SDS011;36665;51.786;21.594;2023-02-01T01:13:13;4.90;;;3.70;;
50695;SDS011;36665;51.786;21.594;2023-02-01T01:21:36;6.60;;;4.00;;
50695;SDS011;36665;51.786;21.594;2023-02-01T01:29:59;7.50;;;4.00;;
50695;SDS011;36665;51.786;21.594;2023-02-01T01:38:22;8.50;;;4.20;;
50695;SDS011;36665;51.786;21.594;2023-02-01T01:46:45;6.70;;;3.60;;
50695;SDS011;36665;51.786;21.594;2023-02-01T01:55:08;10.20;;;3.60;;
50695;SDS011;36665;51.786;21.594;2023-02-01T02:03:37;7.70;;;3.50;;
50695;SDS011;36665;51.786;21.594;2023-02-01T02:12:04;5.00;;;2.00;;
50695;SDS011;36665;51.786;21.594;2023-02-01T02:20:40;4.40;;;1.70;;
50695;SDS011;36665;51.786;21.594;2023-02-01T02:37:41;6.70;;;1.40;;
50695;SDS011;36665;51.786;21.594;2023-02-01T02:46:25;9.20;;;2.00;;
50695;SDS011;36665;51.786;21.594;2023-02-01T02:55:24;8.30;;;2.00;;
50695;SDS011;36665;51.786;21.594;2023-02-01T03:03:49;7.00;;;1.40;;
50695;SDS011;36665;51.786;21.594;2023-02-01T03:12:34;10.50;;;1.60;;
50695;SDS011;36665;51.786;21.594;2023-02-01T03:21:22;7.40;;;1.50;;
50695;SDS011;36665;51.786;21.594;2023-02-01T03:39:19;6.00;;;1.30;;
50695;SDS011;36665;51.786;21.594;2023-02-01T03:47:40;3.80;;;1.80;;
50695;SDS011;36665;51.786;21.594;2023-02-01T03:56:06;12.90;;;2.60;;
50695;SDS011;36665;51.786;21.594;2023-02-01T04:04:30;9.80;;;1.80;;
50695;SDS011;36665;51.786;21.594;2023-02-01T04:12:54;5.50;;;1.20;;
50695;SDS011;36665;51.786;21.594;2023-02-01T04:21:17;10.90;;;1.90;;
50695;SDS011;36665;51.786;21.594;2023-02-01T04:29:40;11.60;;;1.90;;
50695;SDS011;36665;51.786;21.594;2023-02-01T04:38:03;6.50;;;1.70;;
50695;SDS011;36665;51.786;21.594;2023-02-01T04:46:26;8.60;;;1.30;;
50695;SDS011;36665;51.786;21.594;2023-02-01T04:54:49;13.80;;;2.00;;
50695;SDS011;36665;51.786;21.594;2023-02-01T05:03:12;11.80;;;1.90;;
50695;SDS011;36665;51.786;21.594;2023-02-01T05:11:35;7.80;;;1.70;;
50695;SDS011;36665;51.786;21.594;2023-02-01T05:20:16;5.20;;;1.50;;
50695;SDS011;36665;51.786;21.594;2023-02-01T05:28:39;8.40;;;1.60;;
50695;SDS011;36665;51.786;21.594;2023-02-01T05:37:02;7.80;;;1.80;;
50695;SDS011;36665;51.786;21.594;2023-02-01T05:45:25;10.60;;;1.70;;
50695;SDS011;36665;51.786;21.594;2023-02-01T05:53:48;11.50;;;1.70;;
50695;SDS011;36665;51.786;21.594;2023-02-01T06:02:11;11.60;;;2.50;;
50695;SDS011;36665;51.786;21.594;2023-02-01T06:10:34;10.80;;;2.50;;
50695;SDS011;36665;51.786;21.594;2023-02-01T06:18:57;14.00;;;2.90;;
50695;SDS011;36665;51.786;21.594;2023-02-01T06:27:20;18.20;;;4.10;;
50695;SDS011;36665;51.786;21.594;2023-02-01T06:35:43;14.00;;;2.80;;
50695;SDS011;36665;51.786;21.594;2023-02-01T06:44:06;13.50;;;2.80;;
50695;SDS011;36665;51.786;21.594;2023-02-01T06:52:29;7.60;;;2.30;;
50695;SDS011;36665;51.786;21.594;2023-02-01T07:00:52;7.60;;;1.80;;
50695;SDS011;36665;51.786;21.594;2023-02-01T07:09:16;34.10;;;13.00;;
50695;SDS011;36665;51.786;21.594;2023-02-01T07:17:39;7.40;;;2.30;;
50695;SDS011;36665;51.786;21.594;2023-02-01T07:26:03;9.50;;;3.00;;
50695;SDS011;36665;51.786;21.594;2023-02-01T07:34:28;8.70;;;2.20;;
50695;SDS011;36665;51.786;21.594;2023-02-01T07:42:53;9.20;;;1.90;;
50695;SDS011;36665;51.786;21.594;2023-02-01T07:51:16;12.60;;;2.90;;
50695;SDS011;36665;51.786;21.594;2023-02-01T07:59:39;65.40;;;25.10;;
50695;SDS011;36665;51.786;21.594;2023-02-01T08:08:22;15.70;;;3.20;;
50695;SDS011;36665;51.786;21.594;2023-02-01T08:16:46;16.00;;;2.40;;
50695;SDS011;36665;51.786;21.594;2023-02-01T08:25:09;12.10;;;2.70;;
50695;SDS011;36665;51.786;21.594;2023-02-01T08:33:32;28.30;;;6.10;;
50695;SDS011;36665;51.786;21.594;2023-02-01T08:41:56;9.70;;;3.40;;
50695;SDS011;36665;51.786;21.594;2023-02-01T08:59:00;14.50;;;3.30;;
50695;SDS011;36665;51.786;21.594;2023-02-01T09:07:23;15.20;;;3.30;;
50695;SDS011;36665;51.786;21.594;2023-02-01T09:15:54;24.80;;;4.40;;
50695;SDS011;36665;51.786;21.594;2023-02-01T09:24:17;13.60;;;3.10;;
50695;SDS011;36665;51.786;21.594;2023-02-01T09:32:41;12.00;;;3.20;;
50695;SDS011;36665;51.786;21.594;2023-02-01T09:50:08;179.30;;;66.40;;
50695;SDS011;36665;51.786;21.594;2023-02-01T09:58:52;89.40;;;35.90;;
50695;SDS011;36665;51.786;21.594;2023-02-01T10:16:25;25.10;;;7.60;;
50695;SDS011;36665;51.786;21.594;2023-02-01T10:25:22;19.90;;;6.80;;
50695;SDS011;36665;51.786;21.594;2023-02-01T10:34:14;18.30;;;4.40;;
50695;SDS011;36665;51.786;21.594;2023-02-01T10:42:42;17.70;;;4.60;;
50695;SDS011;36665;51.786;21.594;2023-02-01T10:59:34;12.60;;;2.50;;
50695;SDS011;36665;51.786;21.594;2023-02-01T11:07:58;10.40;;;2.90;;
50695;SDS011;36665;51.786;21.594;2023-02-01T11:16:28;13.30;;;2.80;;
50695;SDS011;36665;51.786;21.594;2023-02-01T11:25:00;13.30;;;2.80;;
50695;SDS011;36665;51.786;21.594;2023-02-01T11:33:31;13.10;;;4.50;;
50695;SDS011;36665;51.786;21.594;2023-02-01T12:17:06;144.00;;;51.40;;
50695;SDS011;36665;51.786;21.594;2023-02-01T12:34:24;45.50;;;14.90;;
50695;SDS011;36665;51.786;21.594;2023-02-01T12:42:53;28.30;;;9.00;;
50695;SDS011;36665;51.786;21.594;2023-02-01T12:51:29;31.80;;;10.90;;
50695;SDS011;36665;51.786;21.594;2023-02-01T13:08:38;21.70;;;7.50;;
50695;SDS011;36665;51.786;21.594;2023-02-01T13:17:14;27.40;;;11.00;;
50695;SDS011;36665;51.786;21.594;2023-02-01T13:25:48;32.00;;;8.30;;
50695;SDS011;36665;51.786;21.594;2023-02-01T13:43:21;63.00;;;17.20;;
50695;SDS011;36665;51.786;21.594;2023-02-01T13:51:50;85.60;;;25.50;;
50695;SDS011;36665;51.786;21.594;2023-02-01T14:00:32;31.30;;;8.60;;
50695;SDS011;36665;51.786;21.594;2023-02-01T14:17:32;27.40;;;7.20;;
50695;SDS011;36665;51.786;21.594;2023-02-01T14:26:01;24.70;;;8.70;;
50695;SDS011;36665;51.786;21.594;2023-02-01T14:34:31;36.70;;;12.10;;
50695;SDS011;36665;51.786;21.594;2023-02-01T14:43:09;19.60;;;7.20;;
50695;SDS011;36665;51.786;21.594;2023-02-01T14:51:52;32.10;;;18.30;;
50695;SDS011;36665;51.786;21.594;2023-02-01T15:00:17;24.80;;;9.20;;
50695;SDS011;36665;51.786;21.594;2023-02-01T15:08:44;12.90;;;4.80;;
50695;SDS011;36665;51.786;21.594;2023-02-01T15:25:40;17.50;;;5.70;;
50695;SDS011;36665;51.786;21.594;2023-02-01T15:34:08;19.60;;;6.40;;
50695;SDS011;36665;51.786;21.594;2023-02-01T15:42:31;11.40;;;5.30;;
50695;SDS011;36665;51.786;21.594;2023-02-01T15:50:54;10.00;;;4.00;;
50695;SDS011;36665;51.786;21.594;2023-02-01T15:59:19;14.50;;;4.90;;
50695;SDS011;36665;51.786;21.594;2023-02-01T16:07:55;14.90;;;4.60;;
50695;SDS011;36665;51.786;21.594;2023-02-01T16:16:28;19.50;;;6.30;;
50695;SDS011;36665;51.786;21.594;2023-02-01T16:24:51;20.30;;;7.80;;
50695;SDS011;36665;51.786;21.594;2023-02-01T16:33:16;13.90;;;5.00;;
50695;SDS011;36665;51.786;21.594;2023-02-01T16:41:44;15.40;;;4.90;;
50695;SDS011;36665;51.786;21.594;2023-02-01T16:50:15;11.50;;;4.70;;
50695;SDS011;36665;51.786;21.594;2023-02-01T17:07:12;73.00;;;27.90;;
50695;SDS011;36665;51.786;21.594;2023-02-01T17:15:40;24.80;;;8.30;;
50695;SDS011;36665;51.786;21.594;2023-02-01T17:24:16;30.70;;;14.80;;
50695;SDS011;36665;51.786;21.594;2023-02-01T17:32:40;23.10;;;9.70;;
50695;SDS011;36665;51.786;21.594;2023-02-01T17:41:03;16.00;;;6.30;;
50695;SDS011;36665;51.786;21.594;2023-02-01T17:49:27;10.20;;;5.80;;
50695;SDS011;36665;51.786;21.594;2023-02-01T17:57:50;22.20;;;9.80;;
50695;SDS011;36665;51.786;21.594;2023-02-01T18:06:17;16.40;;;7.80;;
50695;SDS011;36665;51.786;21.594;2023-02-01T18:14:43;13.20;;;6.00;;
50695;SDS011;36665;51.786;21.594;2023-02-01T18:23:08;21.90;;;8.70;;
50695;SDS011;36665;51.786;21.594;2023-02-01T18:31:39;17.20;;;9.30;;
50695;SDS011;36665;51.786;21.594;2023-02-01T18:40:11;20.50;;;9.60;;
50695;SDS011;36665;51.786;21.594;2023-02-01T18:48:35;19.70;;;9.40;;
50695;SDS011;36665;51.786;21.594;2023-02-01T18:56:59;24.40;;;9.90;;
50695;SDS011;36665;51.786;21.594;2023-02-01T19:05:21;20.70;;;9.40;;
50695;SDS011;36665;51.786;21.594;2023-02-01T19:13:45;18.00;;;8.10;;
50695;SDS011;36665;51.786;21.594;2023-02-01T19:22:12;18.30;;;7.60;;
50695;SDS011;36665;51.786;21.594;2023-02-01T19:30:35;24.10;;;7.60;;
50695;SDS011;36665;51.786;21.594;2023-02-01T19:38:58;34.70;;;15.10;;
50695;SDS011;36665;51.786;21.594;2023-02-01T19:47:21;110.10;;;37.30;;
50695;SDS011;36665;51.786;21.594;2023-02-01T19:55:44;242.50;;;80.00;;
50695;SDS011;36665;51.786;21.594;2023-02-01T20:04:08;298.80;;;74.00;;
50695;SDS011;36665;51.786;21.594;2023-02-01T20:12:31;137.40;;;40.00;;
50695;SDS011;36665;51.786;21.594;2023-02-01T20:20:55;367.00;;;101.40;;
50695;SDS011;36665;51.786;21.594;2023-02-01T20:29:19;110.70;;;31.50;;
50695;SDS011;36665;51.786;21.594;2023-02-01T20:37:44;56.70;;;19.10;;
50695;SDS011;36665;51.786;21.594;2023-02-01T20:46:07;120.60;;;36.00;;
50695;SDS011;36665;51.786;21.594;2023-02-01T20:54:31;53.80;;;20.50;;
50695;SDS011;36665;51.786;21.594;2023-02-01T21:02:54;40.10;;;14.70;;
50695;SDS011;36665;51.786;21.594;2023-02-01T21:11:17;23.30;;;10.40;;
50695;SDS011;36665;51.786;21.594;2023-02-01T21:19:40;59.10;;;21.40;;
50695;SDS011;36665;51.786;21.594;2023-02-01T21:28:06;21.90;;;7.60;;
50695;SDS011;36665;51.786;21.594;2023-02-01T21:36:30;19.20;;;6.40;;
50695;SDS011;36665;51.786;21.594;2023-02-01T21:44:59;25.10;;;10.70;;
50695;SDS011;36665;51.786;21.594;2023-02-01T21:53:23;12.30;;;5.20;;
50695;SDS011;36665;51.786;21.594;2023-02-01T22:01:46;17.90;;;6.20;;
50695;SDS011;36665;51.786;21.594;2023-02-01T22:10:10;15.30;;;5.40;;
50695;SDS011;36665;51.786;21.594;2023-02-01T22:18:34;16.90;;;6.80;;
50695;SDS011;36665;51.786;21.594;2023-02-01T22:26:57;10.50;;;5.80;;
50695;SDS011;36665;51.786;21.594;2023-02-01T22:35:36;17.30;;;6.60;;
50695;SDS011;36665;51.786;21.594;2023-02-01T22:43:58;10.80;;;5.20;;
50695;SDS011;36665;51.786;21.594;2023-02-01T22:52:22;11.70;;;5.00;;
50695;SDS011;36665;51.786;21.594;2023-02-01T23:00:45;14.10;;;4.90;;
50695;SDS011;36665;51.786;21.594;2023-02-01T23:09:15;15.90;;;4.60;;
50695;SDS011;36665;51.786;21.594;2023-02-01T23:17:48;8.20;;;4.00;;
50695;SDS011;36665;51.786;21.594;2023-02-01T23:26:11;11.60;;;5.10;;
50695;SDS011;36665;51.786;21.594;2023-02-01T23:34:34;6.70;;;3.20;;
50695;SDS011;36665;51.786;21.594;2023-02-01T23:42:57;8.80;;;3.00;;
50695;SDS011;36665;51.786;21.594;2023-02-01T23:51:40;5.20;;;3.20;;
